Irish Green, Utah
Current Conditions -  °F | °C
As of 3:55 PM on Tuesday 27 Jan 2015 (Local Time) from KBDG Reporting Station
Overcast Overcast  
Wind Chill: 51°   Ceiling: 5000
Heat Index: 51°   Visibility: 10mi
Dew Point: 33°   Wind: 0mph
Humidity: 49%   Direction: NA
Pressure: 30.34"   Gusts: NA
Location:  37.6208°N, 109.479°W
Report Text: KBDG 272255Z AUTO 00000KT 10SM OVC050 11/00 A3034 RMK AO1 T01070004
Loading
Personal Weather Stations






























Interactive Weather Map New forecast layout! Learn more

10-Day Weather Forecast

Advertisements
Track Severe Weather on mobile